<?xml version="1.0" encoding="UTF-8" standalone="no" ?>
<gpx xmlns="http://www.topografix.com/GPX/1/1" xmlns:xsi="http://www.w3.org/2001/XMLSchema-instance" xsi:schemaLocation="http://www.topografix.com/GPX/1/1 http://www.topografix.com/GPX/1/1/gpx.xsd" version="1.1" creator="VisuGPX - https://www.visugpx.com">
  <metadata>
    <name>Norvège</name>
  </metadata>
  <trk>
    <name><![CDATA[Tour d'Europe: étape 049]]></name>
    <trkseg>
      <trkpt lat="66.73961" lon="13.5023">
        <ele>46.251203</ele>
        <time>2020-08-16T09:25:08.285Z</time>
      </trkpt>
      <trkpt lat="66.74071" lon="13.50385">
        <ele>46.777365</ele>
        <time>2020-08-16T09:26:05.298Z</time>
      </trkpt>
      <trkpt lat="66.73991" lon="13.50899">
        <ele>53.835353</ele>
        <time>2020-08-16T09:27:05.320Z</time>
      </trkpt>
      <trkpt lat="66.73933" lon="13.51481">
        <ele>49.480028</ele>
        <time>2020-08-16T09:27:55.299Z</time>
      </trkpt>
      <trkpt lat="66.73945" lon="13.52023">
        <ele>47.051305</ele>
        <time>2020-08-16T09:28:49.311Z</time>
      </trkpt>
      <trkpt lat="66.73976" lon="13.52601">
        <ele>47.61883</ele>
        <time>2020-08-16T09:29:37.289Z</time>
      </trkpt>
      <trkpt lat="66.73927" lon="13.53149">
        <ele>53.353572</ele>
        <time>2020-08-16T09:30:43.297Z</time>
      </trkpt>
      <trkpt lat="66.73945" lon="13.53695">
        <ele>53.194182</ele>
        <time>2020-08-16T09:31:25.324Z</time>
      </trkpt>
      <trkpt lat="66.74046" lon="13.54186">
        <ele>49.402061</ele>
        <time>2020-08-16T09:32:05.289Z</time>
      </trkpt>
      <trkpt lat="66.74223" lon="13.54716">
        <ele>43.465358</ele>
        <time>2020-08-16T09:32:45.295Z</time>
      </trkpt>
      <trkpt lat="66.74315" lon="13.55204">
        <ele>44.98627</ele>
        <time>2020-08-16T09:33:29.324Z</time>
      </trkpt>
      <trkpt lat="66.74347" lon="13.55809">
        <ele>44.349006</ele>
        <time>2020-08-16T09:34:15.288Z</time>
      </trkpt>
      <trkpt lat="66.74344" lon="13.5632">
        <ele>54.673885</ele>
        <time>2020-08-16T09:35:45.343Z</time>
      </trkpt>
      <trkpt lat="66.74328" lon="13.56823">
        <ele>69.137677</ele>
        <time>2020-08-16T09:37:43.317Z</time>
      </trkpt>
      <trkpt lat="66.74355" lon="13.57318">
        <ele>79.276435</ele>
        <time>2020-08-16T09:39:30.296Z</time>
      </trkpt>
      <trkpt lat="66.74421" lon="13.57842">
        <ele>87.287459</ele>
        <time>2020-08-16T09:42:14.308Z</time>
      </trkpt>
      <trkpt lat="66.74483" lon="13.58333">
        <ele>96.425591</ele>
        <time>2020-08-16T09:43:51.296Z</time>
      </trkpt>
      <trkpt lat="66.74596" lon="13.5878">
        <ele>106.074282</ele>
        <time>2020-08-16T09:45:28.347Z</time>
      </trkpt>
      <trkpt lat="66.74709" lon="13.59207">
        <ele>114.494585</ele>
        <time>2020-08-16T09:47:02.318Z</time>
      </trkpt>
      <trkpt lat="66.74831" lon="13.59614">
        <ele>125.377374</ele>
        <time>2020-08-16T09:48:47.309Z</time>
      </trkpt>
      <trkpt lat="66.75002" lon="13.59933">
        <ele>126.764965</ele>
        <time>2020-08-16T09:50:14.307Z</time>
      </trkpt>
      <trkpt lat="66.75167" lon="13.60299">
        <ele>117.055971</ele>
        <time>2020-08-16T09:50:40.310Z</time>
      </trkpt>
      <trkpt lat="66.75223" lon="13.60832">
        <ele>116.09345</ele>
        <time>2020-08-16T09:51:20.293Z</time>
      </trkpt>
      <trkpt lat="66.75264" lon="13.61374">
        <ele>121.666731</ele>
        <time>2020-08-16T09:52:20.321Z</time>
      </trkpt>
      <trkpt lat="66.75304" lon="13.61905">
        <ele>124.111418</ele>
        <time>2020-08-16T09:53:21.292Z</time>
      </trkpt>
      <trkpt lat="66.7534" lon="13.62388">
        <ele>128.636807</ele>
        <time>2020-08-16T09:54:22.362Z</time>
      </trkpt>
      <trkpt lat="66.75383" lon="13.62944">
        <ele>129.548316</ele>
        <time>2020-08-16T09:55:30.288Z</time>
      </trkpt>
      <trkpt lat="66.75423" lon="13.63476">
        <ele>132.601756</ele>
        <time>2020-08-16T09:56:30.309Z</time>
      </trkpt>
      <trkpt lat="66.75461" lon="13.6398">
        <ele>140.988576</ele>
        <time>2020-08-16T09:58:09.314Z</time>
      </trkpt>
      <trkpt lat="66.75492" lon="13.64534">
        <ele>134.260591</ele>
        <time>2020-08-16T09:58:37.289Z</time>
      </trkpt>
      <trkpt lat="66.75522" lon="13.65101">
        <ele>121.196217</ele>
        <time>2020-08-16T09:58:57.312Z</time>
      </trkpt>
      <trkpt lat="66.7555" lon="13.65672">
        <ele>119.181052</ele>
        <time>2020-08-16T09:59:34.321Z</time>
      </trkpt>
      <trkpt lat="66.75577" lon="13.66195">
        <ele>129.662</ele>
        <time>2020-08-16T10:00:52.296Z</time>
      </trkpt>
      <trkpt lat="66.75602" lon="13.66697">
        <ele>146.049716</ele>
        <time>2020-08-16T10:02:41.312Z</time>
      </trkpt>
      <trkpt lat="66.75617" lon="13.67219">
        <ele>150.968834</ele>
        <time>2020-08-16T10:04:31.321Z</time>
      </trkpt>
      <trkpt lat="66.75574" lon="13.67776">
        <ele>137.380616</ele>
        <time>2020-08-16T10:06:46.296Z</time>
      </trkpt>
      <trkpt lat="66.75573" lon="13.68389">
        <ele>117.928584</ele>
        <time>2020-08-16T10:07:07.315Z</time>
      </trkpt>
      <trkpt lat="66.75499" lon="13.69051">
        <ele>90.279124</ele>
        <time>2020-08-16T10:07:27.322Z</time>
      </trkpt>
      <trkpt lat="66.75391" lon="13.69811">
        <ele>64.928776</ele>
        <time>2020-08-16T10:07:47.295Z</time>
      </trkpt>
      <trkpt lat="66.75385" lon="13.70471">
        <ele>49.826001</ele>
        <time>2020-08-16T10:08:07.312Z</time>
      </trkpt>
      <trkpt lat="66.75391" lon="13.7107">
        <ele>50.139633</ele>
        <time>2020-08-16T10:08:52.312Z</time>
      </trkpt>
      <trkpt lat="66.75427" lon="13.71734">
        <ele>48.79828</ele>
        <time>2020-08-16T10:09:32.315Z</time>
      </trkpt>
      <trkpt lat="66.75412" lon="13.72302">
        <ele>50.793476</ele>
        <time>2020-08-16T10:10:13.313Z</time>
      </trkpt>
      <trkpt lat="66.754" lon="13.72862">
        <ele>49.955449</ele>
        <time>2020-08-16T10:11:08.340Z</time>
      </trkpt>
      <trkpt lat="66.75321" lon="13.73476">
        <ele>46.67643</ele>
        <time>2020-08-16T10:11:49.303Z</time>
      </trkpt>
      <trkpt lat="66.75309" lon="13.74092">
        <ele>45.204036</ele>
        <time>2020-08-16T10:12:26.336Z</time>
      </trkpt>
      <trkpt lat="66.7531" lon="13.74672">
        <ele>46.07207</ele>
        <time>2020-08-16T10:13:16.296Z</time>
      </trkpt>
      <trkpt lat="66.75433" lon="13.75113">
        <ele>44.187396</ele>
        <time>2020-08-16T10:13:57.331Z</time>
      </trkpt>
      <trkpt lat="66.75518" lon="13.75727">
        <ele>43.039597</ele>
        <time>2020-08-16T10:14:44.310Z</time>
      </trkpt>
      <trkpt lat="66.75656" lon="13.76148">
        <ele>40.154238</ele>
        <time>2020-08-16T10:15:24.293Z</time>
      </trkpt>
      <trkpt lat="66.75886" lon="13.76079">
        <ele>40.52321</ele>
        <time>2020-08-16T10:16:21.302Z</time>
      </trkpt>
      <trkpt lat="66.75944" lon="13.75592">
        <ele>46.935252</ele>
        <time>2020-08-16T10:17:21.304Z</time>
      </trkpt>
      <trkpt lat="66.75962" lon="13.75068">
        <ele>47.313904</ele>
        <time>2020-08-16T10:18:28.292Z</time>
      </trkpt>
      <trkpt lat="66.7599" lon="13.74516">
        <ele>48.031674</ele>
        <time>2020-08-16T10:19:28.289Z</time>
      </trkpt>
      <trkpt lat="66.76013" lon="13.74015">
        <ele>57.633939</ele>
        <time>2020-08-16T10:20:40.353Z</time>
      </trkpt>
      <trkpt lat="66.7604" lon="13.73475">
        <ele>63.336664</ele>
        <time>2020-08-16T10:21:49.307Z</time>
      </trkpt>
      <trkpt lat="66.76073" lon="13.72836">
        <ele>54.655592</ele>
        <time>2020-08-16T10:22:37.299Z</time>
      </trkpt>
      <trkpt lat="66.7611" lon="13.72114">
        <ele>53.762648</ele>
        <time>2020-08-16T10:23:27.296Z</time>
      </trkpt>
      <trkpt lat="66.76121" lon="13.71591">
        <ele>54.210246</ele>
        <time>2020-08-16T10:24:24.336Z</time>
      </trkpt>
      <trkpt lat="66.76125" lon="13.71085">
        <ele>52.193829</ele>
        <time>2020-08-16T10:25:07.329Z</time>
      </trkpt>
      <trkpt lat="66.76157" lon="13.70512">
        <ele>50.080769</ele>
        <time>2020-08-16T10:26:00.311Z</time>
      </trkpt>
      <trkpt lat="66.76274" lon="13.70026">
        <ele>50.008791</ele>
        <time>2020-08-16T10:26:56.316Z</time>
      </trkpt>
      <trkpt lat="66.76405" lon="13.69643">
        <ele>58.277158</ele>
        <time>2020-08-16T10:28:26.317Z</time>
      </trkpt>
      <trkpt lat="66.76444" lon="13.69128">
        <ele>67.40105</ele>
        <time>2020-08-16T10:29:54.311Z</time>
      </trkpt>
      <trkpt lat="66.76469" lon="13.68441">
        <ele>58.60039</ele>
        <time>2020-08-16T10:30:38.300Z</time>
      </trkpt>
      <trkpt lat="66.76483" lon="13.677">
        <ele>47.479246</ele>
        <time>2020-08-16T10:31:18.316Z</time>
      </trkpt>
      <trkpt lat="66.76577" lon="13.67178">
        <ele>44.600568</ele>
        <time>2020-08-16T10:32:07.316Z</time>
      </trkpt>
      <trkpt lat="66.7669" lon="13.66657">
        <ele>46.157829</ele>
        <time>2020-08-16T10:33:08.296Z</time>
      </trkpt>
      <trkpt lat="66.76813" lon="13.66213">
        <ele>45.578533</ele>
        <time>2020-08-16T10:34:12.308Z</time>
      </trkpt>
      <trkpt lat="66.76879" lon="13.6569">
        <ele>48.409141</ele>
        <time>2020-08-16T10:35:24.318Z</time>
      </trkpt>
      <trkpt lat="66.76914" lon="13.65119">
        <ele>49.672727</ele>
        <time>2020-08-16T10:36:23.316Z</time>
      </trkpt>
      <trkpt lat="66.76935" lon="13.64577">
        <ele>54.015154</ele>
        <time>2020-08-16T10:37:32.295Z</time>
      </trkpt>
      <trkpt lat="66.76981" lon="13.64058">
        <ele>55.215984</ele>
        <time>2020-08-16T10:38:56.318Z</time>
      </trkpt>
      <trkpt lat="66.77036" lon="13.63518">
        <ele>53.065151</ele>
        <time>2020-08-16T10:39:40.322Z</time>
      </trkpt>
      <trkpt lat="66.77093" lon="13.62944">
        <ele>54.509511</ele>
        <time>2020-08-16T10:40:38.312Z</time>
      </trkpt>
      <trkpt lat="66.7714" lon="13.62338">
        <ele>50.266028</ele>
        <time>2020-08-16T10:41:20.305Z</time>
      </trkpt>
      <trkpt lat="66.77157" lon="13.61753">
        <ele>44.979608</ele>
        <time>2020-08-16T10:42:00.301Z</time>
      </trkpt>
      <trkpt lat="66.77126" lon="13.61181">
        <ele>45.25747</ele>
        <time>2020-08-16T10:42:45.304Z</time>
      </trkpt>
      <trkpt lat="66.77117" lon="13.60639">
        <ele>45.22114</ele>
        <time>2020-08-16T10:43:46.319Z</time>
      </trkpt>
      <trkpt lat="66.77118" lon="13.60109">
        <ele>42.837993</ele>
        <time>2020-08-16T10:44:26.293Z</time>
      </trkpt>
      <trkpt lat="66.77079" lon="13.59541">
        <ele>41.851673</ele>
        <time>2020-08-16T10:45:19.309Z</time>
      </trkpt>
      <trkpt lat="66.77021" lon="13.59022">
        <ele>41.806481</ele>
        <time>2020-08-16T10:46:12.322Z</time>
      </trkpt>
      <trkpt lat="66.76966" lon="13.58511">
        <ele>45.657723</ele>
        <time>2020-08-16T10:47:10.297Z</time>
      </trkpt>
      <trkpt lat="66.76936" lon="13.57962">
        <ele>45.887266</ele>
        <time>2020-08-16T10:48:00.301Z</time>
      </trkpt>
      <trkpt lat="66.76911" lon="13.57444">
        <ele>49.368374</ele>
        <time>2020-08-16T10:49:17.332Z</time>
      </trkpt>
      <trkpt lat="66.76882" lon="13.56893">
        <ele>53.719012</ele>
        <time>2020-08-16T10:50:12.297Z</time>
      </trkpt>
      <trkpt lat="66.76855" lon="13.56396">
        <ele>60.119439</ele>
        <time>2020-08-16T10:51:40.314Z</time>
      </trkpt>
      <trkpt lat="66.76828" lon="13.55872">
        <ele>66.798634</ele>
        <time>2020-08-16T10:52:55.340Z</time>
      </trkpt>
      <trkpt lat="66.76839" lon="13.55348">
        <ele>75.699224</ele>
        <time>2020-08-16T10:54:47.323Z</time>
      </trkpt>
      <trkpt lat="66.76894" lon="13.54841">
        <ele>75.416238</ele>
        <time>2020-08-16T10:55:54.301Z</time>
      </trkpt>
      <trkpt lat="66.77039" lon="13.54536">
        <ele>61.947607</ele>
        <time>2020-08-16T10:56:19.310Z</time>
      </trkpt>
      <trkpt lat="66.77244" lon="13.54778">
        <ele>43.752801</ele>
        <time>2020-08-16T10:56:42.315Z</time>
      </trkpt>
      <trkpt lat="66.7737" lon="13.54354">
        <ele>43.423728</ele>
        <time>2020-08-16T10:57:37.312Z</time>
      </trkpt>
      <trkpt lat="66.77524" lon="13.5392">
        <ele>44.724855</ele>
        <time>2020-08-16T10:58:30.333Z</time>
      </trkpt>
      <trkpt lat="66.77687" lon="13.53595">
        <ele>43.253248</ele>
        <time>2020-08-16T10:59:11.333Z</time>
      </trkpt>
      <trkpt lat="66.77886" lon="13.535">
        <ele>43.747389</ele>
        <time>2020-08-16T10:59:57.315Z</time>
      </trkpt>
      <trkpt lat="66.78079" lon="13.53313">
        <ele>48.439759</ele>
        <time>2020-08-16T11:01:11.334Z</time>
      </trkpt>
      <trkpt lat="66.78268" lon="13.53155">
        <ele>60.755545</ele>
        <time>2020-08-16T11:03:01.305Z</time>
      </trkpt>
      <trkpt lat="66.78473" lon="13.53005">
        <ele>68.826746</ele>
        <time>2020-08-16T11:04:57.331Z</time>
      </trkpt>
      <trkpt lat="66.78554" lon="13.52465">
        <ele>66.11881</ele>
        <time>2020-08-16T11:05:37.310Z</time>
      </trkpt>
      <trkpt lat="66.78628" lon="13.51898">
        <ele>65.36937</ele>
        <time>2020-08-16T11:06:23.335Z</time>
      </trkpt>
      <trkpt lat="66.78768" lon="13.51487">
        <ele>65.581431</ele>
        <time>2020-08-16T11:07:17.344Z</time>
      </trkpt>
      <trkpt lat="66.78877" lon="13.51032">
        <ele>63.008854</ele>
        <time>2020-08-16T11:08:09.318Z</time>
      </trkpt>
      <trkpt lat="66.78984" lon="13.50561">
        <ele>63.505959</ele>
        <time>2020-08-16T11:09:09.364Z</time>
      </trkpt>
      <trkpt lat="66.79193" lon="13.50479">
        <ele>60.184822</ele>
        <time>2020-08-16T11:10:06.305Z</time>
      </trkpt>
      <trkpt lat="66.79439" lon="13.50426">
        <ele>50.555478</ele>
        <time>2020-08-16T11:11:57.321Z</time>
      </trkpt>
      <trkpt lat="66.79649" lon="13.50359">
        <ele>51.469669</ele>
        <time>2020-08-16T11:13:00.346Z</time>
      </trkpt>
      <trkpt lat="66.79835" lon="13.50545">
        <ele>57.25251</ele>
        <time>2020-08-16T11:14:10.314Z</time>
      </trkpt>
      <trkpt lat="66.80028" lon="13.50736">
        <ele>65.012209</ele>
        <time>2020-08-16T11:15:56.311Z</time>
      </trkpt>
      <trkpt lat="66.80178" lon="13.51099">
        <ele>67.610189</ele>
        <time>2020-08-16T11:17:01.361Z</time>
      </trkpt>
      <trkpt lat="66.80159" lon="13.5173">
        <ele>60.192335</ele>
        <time>2020-08-16T11:17:42.318Z</time>
      </trkpt>
      <trkpt lat="66.80125" lon="13.52345">
        <ele>57.659627</ele>
        <time>2020-08-16T11:18:22.338Z</time>
      </trkpt>
      <trkpt lat="66.80133" lon="13.52857">
        <ele>59.100069</ele>
        <time>2020-08-16T11:19:12.307Z</time>
      </trkpt>
      <trkpt lat="66.80097" lon="13.53425">
        <ele>61.010922</ele>
        <time>2020-08-16T11:20:04.318Z</time>
      </trkpt>
      <trkpt lat="66.80163" lon="13.53901">
        <ele>73.14187</ele>
        <time>2020-08-16T11:21:52.312Z</time>
      </trkpt>
      <trkpt lat="66.80226" lon="13.54366">
        <ele>80.187064</ele>
        <time>2020-08-16T11:23:32.309Z</time>
      </trkpt>
      <trkpt lat="66.80312" lon="13.54929">
        <ele>76.664228</ele>
        <time>2020-08-16T11:24:23.358Z</time>
      </trkpt>
      <trkpt lat="66.80355" lon="13.55503">
        <ele>66.006588</ele>
        <time>2020-08-16T11:24:43.352Z</time>
      </trkpt>
      <trkpt lat="66.80398" lon="13.56136">
        <ele>65.519054</ele>
        <time>2020-08-16T11:25:27.320Z</time>
      </trkpt>
      <trkpt lat="66.80419" lon="13.56643">
        <ele>68.25227</ele>
        <time>2020-08-16T11:26:09.328Z</time>
      </trkpt>
      <trkpt lat="66.80434" lon="13.57232">
        <ele>65.675294</ele>
        <time>2020-08-16T11:26:54.314Z</time>
      </trkpt>
      <trkpt lat="66.80443" lon="13.57836">
        <ele>56.7457</ele>
        <time>2020-08-16T11:27:34.341Z</time>
      </trkpt>
      <trkpt lat="66.80474" lon="13.58461">
        <ele>47.771621</ele>
        <time>2020-08-16T11:28:16.319Z</time>
      </trkpt>
      <trkpt lat="66.84788" lon="13.68568">
        <ele>40.371642</ele>
        <time>2020-08-16T12:27:12.824Z</time>
      </trkpt>
      <trkpt lat="66.86516" lon="13.70125">
        <ele>42.490201</ele>
        <time>2020-08-16T12:34:21.358Z</time>
      </trkpt>
      <trkpt lat="66.86751" lon="13.70419">
        <ele>47.699901</ele>
        <time>2020-08-16T12:40:53.351Z</time>
      </trkpt>
      <trkpt lat="66.86966" lon="13.70625">
        <ele>49.307555</ele>
        <time>2020-08-16T12:44:36.359Z</time>
      </trkpt>
      <trkpt lat="66.87205" lon="13.70707">
        <ele>43.958315</ele>
        <time>2020-08-16T12:45:16.321Z</time>
      </trkpt>
      <trkpt lat="66.87387" lon="13.70514">
        <ele>39.242034</ele>
        <time>2020-08-16T12:45:56.350Z</time>
      </trkpt>
      <trkpt lat="66.87573" lon="13.70233">
        <ele>43.768001</ele>
        <time>2020-08-16T12:46:53.384Z</time>
      </trkpt>
      <trkpt lat="66.87621" lon="13.69689">
        <ele>46.410639</ele>
        <time>2020-08-16T12:47:48.356Z</time>
      </trkpt>
      <trkpt lat="66.87631" lon="13.69092">
        <ele>49.386845</ele>
        <time>2020-08-16T12:48:48.350Z</time>
      </trkpt>
      <trkpt lat="66.87671" lon="13.68582">
        <ele>53.104152</ele>
        <time>2020-08-16T12:49:48.385Z</time>
      </trkpt>
      <trkpt lat="66.87845" lon="13.68322">
        <ele>56.611248</ele>
        <time>2020-08-16T12:50:51.366Z</time>
      </trkpt>
      <trkpt lat="66.8802" lon="13.6795">
        <ele>51.867963</ele>
        <time>2020-08-16T12:51:38.366Z</time>
      </trkpt>
      <trkpt lat="66.8813" lon="13.67479">
        <ele>48.380624</ele>
        <time>2020-08-16T12:52:20.359Z</time>
      </trkpt>
      <trkpt lat="66.88163" lon="13.66909">
        <ele>53.759734</ele>
        <time>2020-08-16T12:53:13.348Z</time>
      </trkpt>
      <trkpt lat="66.88213" lon="13.66367">
        <ele>51.023027</ele>
        <time>2020-08-16T12:54:12.380Z</time>
      </trkpt>
      <trkpt lat="66.88301" lon="13.65921">
        <ele>47.599198</ele>
        <time>2020-08-16T12:54:52.346Z</time>
      </trkpt>
      <trkpt lat="66.8847" lon="13.65589">
        <ele>52.538157</ele>
        <time>2020-08-16T12:55:51.350Z</time>
      </trkpt>
      <trkpt lat="66.88674" lon="13.65571">
        <ele>57.925962</ele>
        <time>2020-08-16T12:56:53.350Z</time>
      </trkpt>
      <trkpt lat="66.88861" lon="13.6533">
        <ele>58.439923</ele>
        <time>2020-08-16T12:57:56.358Z</time>
      </trkpt>
      <trkpt lat="66.89067" lon="13.65134">
        <ele>53.922219</ele>
        <time>2020-08-16T12:58:36.355Z</time>
      </trkpt>
      <trkpt lat="66.89276" lon="13.65095">
        <ele>51.611092</ele>
        <time>2020-08-16T12:59:16.370Z</time>
      </trkpt>
      <trkpt lat="66.89545" lon="13.65012">
        <ele>48.848931</ele>
        <time>2020-08-16T12:59:56.342Z</time>
      </trkpt>
      <trkpt lat="66.8976" lon="13.64891">
        <ele>49.166435</ele>
        <time>2020-08-16T13:00:36.354Z</time>
      </trkpt>
      <trkpt lat="66.89959" lon="13.64785">
        <ele>48.143238</ele>
        <time>2020-08-16T13:01:16.358Z</time>
      </trkpt>
      <trkpt lat="66.90158" lon="13.64747">
        <ele>48.175664</ele>
        <time>2020-08-16T13:01:57.347Z</time>
      </trkpt>
      <trkpt lat="66.90389" lon="13.64654">
        <ele>46.039952</ele>
        <time>2020-08-16T13:02:54.391Z</time>
      </trkpt>
      <trkpt lat="66.90599" lon="13.64338">
        <ele>46.469554</ele>
        <time>2020-08-16T13:03:52.371Z</time>
      </trkpt>
      <trkpt lat="66.90795" lon="13.64037">
        <ele>46.958041</ele>
        <time>2020-08-16T13:04:44.380Z</time>
      </trkpt>
      <trkpt lat="66.9099" lon="13.63704">
        <ele>46.207776</ele>
        <time>2020-08-16T13:05:41.364Z</time>
      </trkpt>
      <trkpt lat="66.91135" lon="13.63297">
        <ele>46.30168</ele>
        <time>2020-08-16T13:06:41.364Z</time>
      </trkpt>
      <trkpt lat="66.91294" lon="13.63011">
        <ele>48.800709</ele>
        <time>2020-08-16T13:07:42.376Z</time>
      </trkpt>
      <trkpt lat="66.91475" lon="13.62747">
        <ele>51.848261</ele>
        <time>2020-08-16T13:08:42.348Z</time>
      </trkpt>
      <trkpt lat="66.91674" lon="13.62458">
        <ele>52.404292</ele>
        <time>2020-08-16T13:09:42.353Z</time>
      </trkpt>
      <trkpt lat="66.91859" lon="13.62182">
        <ele>58.186852</ele>
        <time>2020-08-16T13:10:49.362Z</time>
      </trkpt>
      <trkpt lat="66.92061" lon="13.62212">
        <ele>66.956442</ele>
        <time>2020-08-16T13:12:09.358Z</time>
      </trkpt>
      <trkpt lat="66.92256" lon="13.62287">
        <ele>74.789427</ele>
        <time>2020-08-16T13:13:18.344Z</time>
      </trkpt>
      <trkpt lat="66.92472" lon="13.62057">
        <ele>74.309329</ele>
        <time>2020-08-16T13:14:15.354Z</time>
      </trkpt>
      <trkpt lat="66.92673" lon="13.6174">
        <ele>67.926677</ele>
        <time>2020-08-16T13:15:18.374Z</time>
      </trkpt>
      <trkpt lat="66.92866" lon="13.61432">
        <ele>67.560964</ele>
        <time>2020-08-16T13:16:12.357Z</time>
      </trkpt>
      <trkpt lat="66.93074" lon="13.61093">
        <ele>67.754281</ele>
        <time>2020-08-16T13:17:12.370Z</time>
      </trkpt>
      <trkpt lat="66.93259" lon="13.60795">
        <ele>68.305988</ele>
        <time>2020-08-16T13:18:07.369Z</time>
      </trkpt>
      <trkpt lat="66.93439" lon="13.60506">
        <ele>66.571541</ele>
        <time>2020-08-16T13:18:51.387Z</time>
      </trkpt>
      <trkpt lat="66.93657" lon="13.60154">
        <ele>58.029631</ele>
        <time>2020-08-16T13:19:31.405Z</time>
      </trkpt>
      <trkpt lat="66.93864" lon="13.59825">
        <ele>54.679367</ele>
        <time>2020-08-16T13:20:11.366Z</time>
      </trkpt>
      <trkpt lat="66.94035" lon="13.59546">
        <ele>55.82509</ele>
        <time>2020-08-16T13:20:51.375Z</time>
      </trkpt>
      <trkpt lat="66.94219" lon="13.59262">
        <ele>59.060949</ele>
        <time>2020-08-16T13:21:40.350Z</time>
      </trkpt>
      <trkpt lat="66.9441" lon="13.59175">
        <ele>58.912527</ele>
        <time>2020-08-16T13:22:23.354Z</time>
      </trkpt>
      <trkpt lat="66.94619" lon="13.59463">
        <ele>53.048078</ele>
        <time>2020-08-16T13:23:05.358Z</time>
      </trkpt>
      <trkpt lat="66.94818" lon="13.5982">
        <ele>51.517797</ele>
        <time>2020-08-16T13:23:48.360Z</time>
      </trkpt>
      <trkpt lat="66.95002" lon="13.60206">
        <ele>49.681397</ele>
        <time>2020-08-16T13:24:32.360Z</time>
      </trkpt>
      <trkpt lat="66.95125" lon="13.60804">
        <ele>45.901179</ele>
        <time>2020-08-16T13:25:12.361Z</time>
      </trkpt>
      <trkpt lat="66.95153" lon="13.61356">
        <ele>46.174283</ele>
        <time>2020-08-16T13:25:52.362Z</time>
      </trkpt>
      <trkpt lat="66.95126" lon="13.61897">
        <ele>48.129667</ele>
        <time>2020-08-16T13:26:32.364Z</time>
      </trkpt>
      <trkpt lat="66.95094" lon="13.62467">
        <ele>46.435331</ele>
        <time>2020-08-16T13:27:12.385Z</time>
      </trkpt>
      <trkpt lat="66.95051" lon="13.62979">
        <ele>44.342704</ele>
        <time>2020-08-16T13:27:52.408Z</time>
      </trkpt>
      <trkpt lat="66.94995" lon="13.63547">
        <ele>44.596119</ele>
        <time>2020-08-16T13:28:33.351Z</time>
      </trkpt>
      <trkpt lat="66.94943" lon="13.64089">
        <ele>46.620633</ele>
        <time>2020-08-16T13:29:25.355Z</time>
      </trkpt>
      <trkpt lat="66.94922" lon="13.64683">
        <ele>49.760344</ele>
        <time>2020-08-16T13:30:25.355Z</time>
      </trkpt>
      <trkpt lat="66.94908" lon="13.65246">
        <ele>49.737044</ele>
        <time>2020-08-16T13:31:05.355Z</time>
      </trkpt>
      <trkpt lat="66.94928" lon="13.65764">
        <ele>47.440383</ele>
        <time>2020-08-16T13:31:45.376Z</time>
      </trkpt>
      <trkpt lat="66.94936" lon="13.66299">
        <ele>49.949395</ele>
        <time>2020-08-16T13:32:34.361Z</time>
      </trkpt>
      <trkpt lat="66.94926" lon="13.66869">
        <ele>50.208737</ele>
        <time>2020-08-16T13:33:26.409Z</time>
      </trkpt>
      <trkpt lat="66.94917" lon="13.67477">
        <ele>44.182911</ele>
        <time>2020-08-16T13:34:06.383Z</time>
      </trkpt>
      <trkpt lat="66.94838" lon="13.6792">
        <ele>46.449155</ele>
        <time>2020-08-16T13:34:46.355Z</time>
      </trkpt>
      <trkpt lat="66.94739" lon="13.68388">
        <ele>49.00873</ele>
        <time>2020-08-16T13:35:26.376Z</time>
      </trkpt>
      <trkpt lat="66.94664" lon="13.6889">
        <ele>50.167726</ele>
        <time>2020-08-16T13:36:08.368Z</time>
      </trkpt>
      <trkpt lat="66.9461" lon="13.69441">
        <ele>49.737424</ele>
        <time>2020-08-16T13:36:59.375Z</time>
      </trkpt>
      <trkpt lat="66.94536" lon="13.70065">
        <ele>45.123697</ele>
        <time>2020-08-16T13:37:39.346Z</time>
      </trkpt>
      <trkpt lat="66.94478" lon="13.70583">
        <ele>44.427889</ele>
        <time>2020-08-16T13:38:23.409Z</time>
      </trkpt>
      <trkpt lat="66.94484" lon="13.71089">
        <ele>44.380121</ele>
        <time>2020-08-16T13:39:05.354Z</time>
      </trkpt>
      <trkpt lat="66.94494" lon="13.71632">
        <ele>45.421817</ele>
        <time>2020-08-16T13:39:52.373Z</time>
      </trkpt>
      <trkpt lat="66.94505" lon="13.72245">
        <ele>46.412108</ele>
        <time>2020-08-16T13:40:49.359Z</time>
      </trkpt>
      <trkpt lat="66.94513" lon="13.7281">
        <ele>51.047066</ele>
        <time>2020-08-16T13:41:49.367Z</time>
      </trkpt>
      <trkpt lat="66.94529" lon="13.73341">
        <ele>49.757595</ele>
        <time>2020-08-16T13:42:32.366Z</time>
      </trkpt>
      <trkpt lat="66.94605" lon="13.73841">
        <ele>45.219813</ele>
        <time>2020-08-16T13:43:12.359Z</time>
      </trkpt>
      <trkpt lat="66.94728" lon="13.74338">
        <ele>44.346381</ele>
        <time>2020-08-16T13:43:53.379Z</time>
      </trkpt>
      <trkpt lat="66.94844" lon="13.74822">
        <ele>44.587563</ele>
        <time>2020-08-16T13:44:46.376Z</time>
      </trkpt>
      <trkpt lat="66.94968" lon="13.75286">
        <ele>43.471665</ele>
        <time>2020-08-16T13:46:49.366Z</time>
      </trkpt>
      <trkpt lat="66.95088" lon="13.75781">
        <ele>46.040396</ele>
        <time>2020-08-16T13:47:41.381Z</time>
      </trkpt>
      <trkpt lat="66.95185" lon="13.76326">
        <ele>49.936169</ele>
        <time>2020-08-16T13:48:37.399Z</time>
      </trkpt>
      <trkpt lat="66.95332" lon="13.76799">
        <ele>49.593777</ele>
        <time>2020-08-16T13:49:37.389Z</time>
      </trkpt>
      <trkpt lat="66.95469" lon="13.77221">
        <ele>50.511839</ele>
        <time>2020-08-16T13:50:37.359Z</time>
      </trkpt>
      <trkpt lat="66.95589" lon="13.77696">
        <ele>53.275695</ele>
        <time>2020-08-16T13:51:22.361Z</time>
      </trkpt>
      <trkpt lat="66.95708" lon="13.78189">
        <ele>55.357215</ele>
        <time>2020-08-16T13:52:14.359Z</time>
      </trkpt>
      <trkpt lat="66.95779" lon="13.78724">
        <ele>52.578477</ele>
        <time>2020-08-16T13:52:54.359Z</time>
      </trkpt>
      <trkpt lat="66.95852" lon="13.79356">
        <ele>47.997322</ele>
        <time>2020-08-16T13:53:34.362Z</time>
      </trkpt>
      <trkpt lat="66.95916" lon="13.79916">
        <ele>45.671112</ele>
        <time>2020-08-16T13:54:14.385Z</time>
      </trkpt>
      <trkpt lat="66.95999" lon="13.8041">
        <ele>47.342541</ele>
        <time>2020-08-16T13:54:55.366Z</time>
      </trkpt>
      <trkpt lat="66.95961" lon="13.80688">
        <ele>48.241193</ele>
        <time>2020-08-16T13:59:40.415Z</time>
      </trkpt>
      <trkpt lat="66.95939" lon="13.81212">
        <ele>58.920528</ele>
        <time>2020-08-16T14:01:00.372Z</time>
      </trkpt>
      <trkpt lat="66.9592" lon="13.81729">
        <ele>65.463587</ele>
        <time>2020-08-16T14:02:24.370Z</time>
      </trkpt>
      <trkpt lat="66.95903" lon="13.82209">
        <ele>71.876048</ele>
        <time>2020-08-16T14:03:45.431Z</time>
      </trkpt>
      <trkpt lat="66.95881" lon="13.82718">
        <ele>76.175318</ele>
        <time>2020-08-16T14:05:16.367Z</time>
      </trkpt>
      <trkpt lat="66.95119" lon="13.90079">
        <ele>55.183356</ele>
        <time>2020-08-16T14:18:55.395Z</time>
      </trkpt>
      <trkpt lat="66.94878" lon="13.90303">
        <ele>41.572632</ele>
        <time>2020-08-16T14:19:15.408Z</time>
      </trkpt>
      <trkpt lat="66.94708" lon="13.90675">
        <ele>38.516552</ele>
        <time>2020-08-16T14:22:03.371Z</time>
      </trkpt>
      <trkpt lat="66.94659" lon="13.91167">
        <ele>52.657767</ele>
        <time>2020-08-16T14:23:34.371Z</time>
      </trkpt>
      <trkpt lat="66.94637" lon="13.91682">
        <ele>55.2686</ele>
        <time>2020-08-16T14:24:51.355Z</time>
      </trkpt>
      <trkpt lat="66.94756" lon="13.92174">
        <ele>52.76558</ele>
        <time>2020-08-16T14:25:31.360Z</time>
      </trkpt>
      <trkpt lat="66.94869" lon="13.92678">
        <ele>55.272478</ele>
        <time>2020-08-16T14:26:22.397Z</time>
      </trkpt>
      <trkpt lat="66.94992" lon="13.93218">
        <ele>54.62854</ele>
        <time>2020-08-16T14:27:16.382Z</time>
      </trkpt>
      <trkpt lat="66.95129" lon="13.93833">
        <ele>47.541796</ele>
        <time>2020-08-16T14:27:55.402Z</time>
      </trkpt>
      <trkpt lat="66.95204" lon="13.94462">
        <ele>42.72403</ele>
        <time>2020-08-16T14:28:39.382Z</time>
      </trkpt>
      <trkpt lat="66.95373" lon="13.94858">
        <ele>49.493069</ele>
        <time>2020-08-16T14:29:59.393Z</time>
      </trkpt>
      <trkpt lat="66.95559" lon="13.95307">
        <ele>54.954846</ele>
        <time>2020-08-16T14:30:50.409Z</time>
      </trkpt>
      <trkpt lat="66.95724" lon="13.95613">
        <ele>67.383682</ele>
        <time>2020-08-16T14:32:38.398Z</time>
      </trkpt>
      <trkpt lat="66.95869" lon="13.95937">
        <ele>74.729889</ele>
        <time>2020-08-16T14:34:27.391Z</time>
      </trkpt>
      <trkpt lat="66.95966" lon="13.96355">
        <ele>87.555836</ele>
        <time>2020-08-16T14:36:23.407Z</time>
      </trkpt>
      <trkpt lat="66.96013" lon="13.97047">
        <ele>78.299504</ele>
        <time>2020-08-16T14:43:19.375Z</time>
      </trkpt>
      <trkpt lat="66.96065" lon="13.97629">
        <ele>75.543349</ele>
        <time>2020-08-16T14:44:05.429Z</time>
      </trkpt>
      <trkpt lat="66.96133" lon="13.98218">
        <ele>63.191283</ele>
        <time>2020-08-16T14:44:38.377Z</time>
      </trkpt>
      <trkpt lat="66.962" lon="13.98799">
        <ele>50.582089</ele>
        <time>2020-08-16T14:44:58.411Z</time>
      </trkpt>
      <trkpt lat="66.96272" lon="13.99371">
        <ele>48.975583</ele>
        <time>2020-08-16T14:45:38.413Z</time>
      </trkpt>
      <trkpt lat="66.96382" lon="13.99824">
        <ele>54.514595</ele>
        <time>2020-08-16T14:46:35.410Z</time>
      </trkpt>
      <trkpt lat="66.96386" lon="14.0041">
        <ele>52.569</ele>
        <time>2020-08-16T14:47:28.405Z</time>
      </trkpt>
      <trkpt lat="66.96298" lon="14.01007">
        <ele>41.551624</ele>
        <time>2020-08-16T14:48:09.376Z</time>
      </trkpt>
      <trkpt lat="66.96184" lon="14.01402">
        <ele>35.008109</ele>
        <time>2020-08-16T14:48:33.386Z</time>
      </trkpt>
      <trkpt lat="66.96412" lon="14.01592">
        <ele>37.15654</ele>
        <time>2020-08-16T14:49:13.390Z</time>
      </trkpt>
      <trkpt lat="66.96619" lon="14.01512">
        <ele>37.74632</ele>
        <time>2020-08-16T14:49:59.388Z</time>
      </trkpt>
      <trkpt lat="66.96825" lon="14.01538">
        <ele>36.496234</ele>
        <time>2020-08-16T14:50:41.377Z</time>
      </trkpt>
      <trkpt lat="66.97029" lon="14.01551">
        <ele>39.91698</ele>
        <time>2020-08-16T14:51:53.390Z</time>
      </trkpt>
      <trkpt lat="66.97259" lon="14.01689">
        <ele>41.949016</ele>
        <time>2020-08-16T14:52:43.395Z</time>
      </trkpt>
      <trkpt lat="66.97447" lon="14.01742">
        <ele>53.557977</ele>
        <time>2020-08-16T14:54:49.396Z</time>
      </trkpt>
      <trkpt lat="66.97643" lon="14.01945">
        <ele>57.640361</ele>
        <time>2020-08-16T14:56:33.390Z</time>
      </trkpt>
      <trkpt lat="66.9773" lon="14.025">
        <ele>46.388157</ele>
        <time>2020-08-16T14:56:55.391Z</time>
      </trkpt>
      <trkpt lat="66.97861" lon="14.02995">
        <ele>34.400307</ele>
        <time>2020-08-16T14:57:24.378Z</time>
      </trkpt>
      <trkpt lat="66.98021" lon="14.0341">
        <ele>33.116386</ele>
        <time>2020-08-16T14:58:08.391Z</time>
      </trkpt>
      <trkpt lat="66.98204" lon="14.03695">
        <ele>36.789472</ele>
        <time>2020-08-16T14:59:09.386Z</time>
      </trkpt>
      <trkpt lat="66.98419" lon="14.03919">
        <ele>40.260907</ele>
        <time>2020-08-16T15:01:34.405Z</time>
      </trkpt>
      <trkpt lat="66.98577" lon="14.04247">
        <ele>52.05043</ele>
        <time>2020-08-16T15:03:26.387Z</time>
      </trkpt>
      <trkpt lat="66.98617" lon="14.04734">
        <ele>65.201832</ele>
        <time>2020-08-16T15:05:24.425Z</time>
      </trkpt>
      <trkpt lat="66.9865" lon="14.05238">
        <ele>67.146805</ele>
        <time>2020-08-16T15:06:33.406Z</time>
      </trkpt>
      <trkpt lat="66.98734" lon="14.0572">
        <ele>69.196772</ele>
        <time>2020-08-16T15:07:48.394Z</time>
      </trkpt>
      <trkpt lat="66.98663" lon="14.06167">
        <ele>77.746437</ele>
        <time>2020-08-16T15:09:08.412Z</time>
      </trkpt>
      <trkpt lat="66.98491" lon="14.06412">
        <ele>87.037764</ele>
        <time>2020-08-16T15:10:37.399Z</time>
      </trkpt>
      <trkpt lat="66.9845" lon="14.06904">
        <ele>98.838921</ele>
        <time>2020-08-16T15:12:11.432Z</time>
      </trkpt>
      <trkpt lat="66.98573" lon="14.07242">
        <ele>113.666452</ele>
        <time>2020-08-16T15:14:07.420Z</time>
      </trkpt>
      <trkpt lat="66.9874" lon="14.07468">
        <ele>123.799827</ele>
        <time>2020-08-16T15:16:11.407Z</time>
      </trkpt>
      <trkpt lat="66.98882" lon="14.07805">
        <ele>142.904966</ele>
        <time>2020-08-16T15:18:15.390Z</time>
      </trkpt>
      <trkpt lat="66.98998" lon="14.082">
        <ele>158.087568</ele>
        <time>2020-08-16T15:20:19.415Z</time>
      </trkpt>
      <trkpt lat="66.99157" lon="14.09197">
        <ele>182.280171</ele>
        <time>2020-08-16T15:24:44.402Z</time>
      </trkpt>
      <trkpt lat="66.99241" lon="14.0965">
        <ele>186.524028</ele>
        <time>2020-08-16T15:26:30.399Z</time>
      </trkpt>
      <trkpt lat="66.99298" lon="14.10161">
        <ele>188.417431</ele>
        <time>2020-08-16T15:27:30.389Z</time>
      </trkpt>
      <trkpt lat="66.99085" lon="14.12887">
        <ele>126.218165</ele>
        <time>2020-08-16T15:29:37.390Z</time>
      </trkpt>
      <trkpt lat="66.98909" lon="14.13334">
        <ele>109.171975</ele>
        <time>2020-08-16T15:29:57.386Z</time>
      </trkpt>
      <trkpt lat="66.98242" lon="14.14689">
        <ele>82.178488</ele>
        <time>2020-08-16T15:31:41.401Z</time>
      </trkpt>
      <trkpt lat="66.97994" lon="14.14534">
        <ele>63.621469</ele>
        <time>2020-08-16T15:32:01.382Z</time>
      </trkpt>
      <trkpt lat="66.97746" lon="14.14776">
        <ele>42.496101</ele>
        <time>2020-08-16T15:32:21.418Z</time>
      </trkpt>
      <trkpt lat="66.97584" lon="14.15147">
        <ele>27.565813</ele>
        <time>2020-08-16T15:32:42.388Z</time>
      </trkpt>
      <trkpt lat="66.97662" lon="14.15647">
        <ele>34.17034</ele>
        <time>2020-08-16T15:33:29.406Z</time>
      </trkpt>
      <trkpt lat="66.97864" lon="14.15726">
        <ele>57.11876</ele>
        <time>2020-08-16T15:35:29.403Z</time>
      </trkpt>
      <trkpt lat="66.98044" lon="14.1585">
        <ele>73.597056</ele>
        <time>2020-08-16T15:37:36.391Z</time>
      </trkpt>
      <trkpt lat="66.98218" lon="14.16079">
        <ele>84.598006</ele>
        <time>2020-08-16T15:39:35.402Z</time>
      </trkpt>
      <trkpt lat="66.98395" lon="14.16299">
        <ele>94.445467</ele>
        <time>2020-08-16T15:41:19.400Z</time>
      </trkpt>
      <trkpt lat="66.98582" lon="14.16467">
        <ele>104.98428</ele>
        <time>2020-08-16T15:43:08.399Z</time>
      </trkpt>
      <trkpt lat="66.98758" lon="14.16688">
        <ele>108.798544</ele>
        <time>2020-08-16T15:44:46.396Z</time>
      </trkpt>
      <trkpt lat="66.98943" lon="14.16986">
        <ele>109.418408</ele>
        <time>2020-08-16T15:45:53.414Z</time>
      </trkpt>
      <trkpt lat="66.99104" lon="14.17326">
        <ele>108.907248</ele>
        <time>2020-08-16T15:46:56.416Z</time>
      </trkpt>
      <trkpt lat="66.99203" lon="14.17877">
        <ele>106.057729</ele>
        <time>2020-08-16T15:58:26.407Z</time>
      </trkpt>
      <trkpt lat="66.99308" lon="14.18371">
        <ele>99.393137</ele>
        <time>2020-08-16T15:59:07.437Z</time>
      </trkpt>
      <trkpt lat="66.99279" lon="14.18917">
        <ele>90.402097</ele>
        <time>2020-08-16T15:59:28.392Z</time>
      </trkpt>
      <trkpt lat="66.99238" lon="14.19522">
        <ele>76.516404</ele>
        <time>2020-08-16T15:59:48.431Z</time>
      </trkpt>
      <trkpt lat="66.99195" lon="14.20143">
        <ele>63.030148</ele>
        <time>2020-08-16T16:00:08.399Z</time>
      </trkpt>
      <trkpt lat="66.99219" lon="14.20728">
        <ele>50.691792</ele>
        <time>2020-08-16T16:00:28.388Z</time>
      </trkpt>
      <trkpt lat="66.99217" lon="14.21298">
        <ele>45.509408</ele>
        <time>2020-08-16T16:01:05.465Z</time>
      </trkpt>
      <trkpt lat="66.99206" lon="14.21864">
        <ele>45.58143</ele>
        <time>2020-08-16T16:01:45.403Z</time>
      </trkpt>
      <trkpt lat="66.99374" lon="14.22407">
        <ele>42.04194</ele>
        <time>2020-08-16T16:02:25.401Z</time>
      </trkpt>
      <trkpt lat="66.99504" lon="14.2282">
        <ele>45.063745</ele>
        <time>2020-08-16T16:03:32.390Z</time>
      </trkpt>
      <trkpt lat="66.99646" lon="14.23316">
        <ele>42.051225</ele>
        <time>2020-08-16T16:04:19.422Z</time>
      </trkpt>
      <trkpt lat="66.99799" lon="14.23855">
        <ele>38.490386</ele>
        <time>2020-08-16T16:05:04.421Z</time>
      </trkpt>
      <trkpt lat="66.99975" lon="14.24164">
        <ele>40.046694</ele>
        <time>2020-08-16T16:05:49.410Z</time>
      </trkpt>
      <trkpt lat="67.00195" lon="14.24026">
        <ele>41.530874</ele>
        <time>2020-08-16T16:06:33.407Z</time>
      </trkpt>
      <trkpt lat="67.00352" lon="14.23669">
        <ele>44.627425</ele>
        <time>2020-08-16T16:07:41.421Z</time>
      </trkpt>
      <trkpt lat="67.00503" lon="14.23319">
        <ele>55.132835</ele>
        <time>2020-08-16T16:09:16.416Z</time>
      </trkpt>
      <trkpt lat="67.00676" lon="14.23098">
        <ele>66.944433</ele>
        <time>2020-08-16T16:11:08.423Z</time>
      </trkpt>
      <trkpt lat="67.00845" lon="14.23507">
        <ele>58.901819</ele>
        <time>2020-08-16T16:11:49.393Z</time>
      </trkpt>
      <trkpt lat="67.00972" lon="14.23948">
        <ele>45.983322</ele>
        <time>2020-08-16T16:12:09.402Z</time>
      </trkpt>
      <trkpt lat="67.01137" lon="14.24187">
        <ele>38.620323</ele>
        <time>2020-08-16T16:12:29.402Z</time>
      </trkpt>
      <trkpt lat="67.01364" lon="14.243">
        <ele>42.257605</ele>
        <time>2020-08-16T16:13:10.411Z</time>
      </trkpt>
      <trkpt lat="67.01564" lon="14.24462">
        <ele>47.702266</ele>
        <time>2020-08-16T16:14:12.415Z</time>
      </trkpt>
      <trkpt lat="67.01772" lon="14.24708">
        <ele>45.321629</ele>
        <time>2020-08-16T16:15:03.415Z</time>
      </trkpt>
      <trkpt lat="67.02048" lon="14.25051">
        <ele>38.08997</ele>
        <time>2020-08-16T16:15:45.401Z</time>
      </trkpt>
      <trkpt lat="67.02254" lon="14.25311">
        <ele>35.875424</ele>
        <time>2020-08-16T16:16:25.396Z</time>
      </trkpt>
      <trkpt lat="67.0246" lon="14.25516">
        <ele>37.229984</ele>
        <time>2020-08-16T16:17:10.454Z</time>
      </trkpt>
      <trkpt lat="67.02678" lon="14.25662">
        <ele>40.128445</ele>
        <time>2020-08-16T16:18:10.403Z</time>
      </trkpt>
      <trkpt lat="67.02883" lon="14.25878">
        <ele>39.511719</ele>
        <time>2020-08-16T16:18:56.422Z</time>
      </trkpt>
      <trkpt lat="67.03093" lon="14.26047">
        <ele>39.773632</ele>
        <time>2020-08-16T16:19:36.402Z</time>
      </trkpt>
      <trkpt lat="67.03285" lon="14.26224">
        <ele>41.3386</ele>
        <time>2020-08-16T16:20:16.402Z</time>
      </trkpt>
      <trkpt lat="67.03443" lon="14.26556">
        <ele>41.606474</ele>
        <time>2020-08-16T16:21:00.398Z</time>
      </trkpt>
      <trkpt lat="67.03615" lon="14.26907">
        <ele>40.256129</ele>
        <time>2020-08-16T16:21:54.403Z</time>
      </trkpt>
      <trkpt lat="67.03851" lon="14.26928">
        <ele>40.200224</ele>
        <time>2020-08-16T16:22:43.407Z</time>
      </trkpt>
      <trkpt lat="67.04058" lon="14.26984">
        <ele>49.201427</ele>
        <time>2020-08-16T16:23:48.399Z</time>
      </trkpt>
      <trkpt lat="67.04272" lon="14.27059">
        <ele>49.816683</ele>
        <time>2020-08-16T16:24:48.431Z</time>
      </trkpt>
      <trkpt lat="67.04503" lon="14.27137">
        <ele>45.799264</ele>
        <time>2020-08-16T16:25:41.403Z</time>
      </trkpt>
      <trkpt lat="67.04717" lon="14.27215">
        <ele>44.972828</ele>
        <time>2020-08-16T16:26:29.409Z</time>
      </trkpt>
      <trkpt lat="67.04947" lon="14.27291">
        <ele>46.715223</ele>
        <time>2020-08-16T16:27:13.434Z</time>
      </trkpt>
      <trkpt lat="67.05154" lon="14.27397">
        <ele>47.488342</ele>
        <time>2020-08-16T16:28:31.437Z</time>
      </trkpt>
      <trkpt lat="67.05393" lon="14.27593">
        <ele>39.529868</ele>
        <time>2020-08-16T16:29:02.414Z</time>
      </trkpt>
      <trkpt lat="67.05621" lon="14.27695">
        <ele>40.938401</ele>
        <time>2020-08-16T16:29:57.408Z</time>
      </trkpt>
      <trkpt lat="67.05743" lon="14.27324">
        <ele>62.164692</ele>
        <time>2020-08-16T16:31:40.419Z</time>
      </trkpt>
      <trkpt lat="67.05837" lon="14.2688">
        <ele>62.750987</ele>
        <time>2020-08-16T16:33:19.395Z</time>
      </trkpt>
      <trkpt lat="67.05977" lon="14.2635">
        <ele>56.481405</ele>
        <time>2020-08-16T16:34:06.406Z</time>
      </trkpt>
      <trkpt lat="67.06299" lon="14.26282">
        <ele>42.379529</ele>
        <time>2020-08-16T16:34:48.410Z</time>
      </trkpt>
      <trkpt lat="67.0653" lon="14.26313">
        <ele>46.319598</ele>
        <time>2020-08-16T16:35:54.399Z</time>
      </trkpt>
      <trkpt lat="67.06713" lon="14.26103">
        <ele>54.968295</ele>
        <time>2020-08-16T16:37:40.401Z</time>
      </trkpt>
      <trkpt lat="67.06895" lon="14.25886">
        <ele>62.652721</ele>
        <time>2020-08-16T16:39:25.419Z</time>
      </trkpt>
      <trkpt lat="67.0708" lon="14.25726">
        <ele>71.265467</ele>
        <time>2020-08-16T16:41:13.431Z</time>
      </trkpt>
      <trkpt lat="67.07198" lon="14.26149">
        <ele>68.472999</ele>
        <time>2020-08-16T16:42:04.443Z</time>
      </trkpt>
      <trkpt lat="67.0732" lon="14.26543">
        <ele>54.877484</ele>
        <time>2020-08-16T16:42:24.437Z</time>
      </trkpt>
      <trkpt lat="67.07458" lon="14.26924">
        <ele>44.934913</ele>
        <time>2020-08-16T16:42:47.414Z</time>
      </trkpt>
      <trkpt lat="67.0762" lon="14.27293">
        <ele>40.234811</ele>
        <time>2020-08-16T16:43:21.418Z</time>
      </trkpt>
      <trkpt lat="67.07708" lon="14.28278">
        <ele>74.417495</ele>
        <time>2020-08-16T16:46:31.414Z</time>
      </trkpt>
      <trkpt lat="67.07559" lon="14.28582">
        <ele>71.4386</ele>
        <time>2020-08-16T16:47:48.419Z</time>
      </trkpt>
      <trkpt lat="67.07407" lon="14.29004">
        <ele>62.830367</ele>
        <time>2020-08-16T16:48:16.434Z</time>
      </trkpt>
      <trkpt lat="67.07338" lon="14.29566">
        <ele>48.833395</ele>
        <time>2020-08-16T16:48:40.417Z</time>
      </trkpt>
      <trkpt lat="67.07276" lon="14.30175">
        <ele>33.360144</ele>
        <time>2020-08-16T16:49:08.420Z</time>
      </trkpt>
      <trkpt lat="67.07239" lon="14.307">
        <ele>30.563753</ele>
        <time>2020-08-16T16:50:06.443Z</time>
      </trkpt>
    </trkseg>
  </trk>
</gpx>